Time;durP1;ratioP1;P1;durP2;ratioP2;P2;SDS_P1;SDS_P2;PMS_P1;PMS_P2;Temp;Humidity;BMP_temperature;BMP_pressure;BME280_temperature;BME280_humidity;BME280_pressure;Samples;Min_cycle;Max_cycle;Signal;HPM_P1;HPM_P2
2021/09/11 00:00:58;;;;;;;2.60;0.90;;;20.10;69.40;;;;;;4953150;29;20027;-77
2021/09/11 00:03:23;;;;;;;1.63;0.68;;;20.10;69.20;;;;;;4952691;29;20074;-76
2021/09/11 00:05:49;;;;;;;2.38;1.00;;;20.10;69.10;;;;;;4946288;29;20571;-76
2021/09/11 00:08:14;;;;;;;1.70;1.10;;;20.10;69.10;;;;;;4953066;28;20411;-76
2021/09/11 00:10:40;;;;;;;4.10;1.00;;;20.10;69.00;;;;;;4956971;29;20028;-76
2021/09/11 00:13:06;;;;;;;2.85;0.82;;;20.10;68.90;;;;;;4956724;29;20058;-75
2021/09/11 00:15:32;;;;;;;2.90;0.90;;;20.10;69.10;;;;;;4956613;29;20027;-75
2021/09/11 00:18:02;;;;;;;2.75;0.80;;;20.10;68.90;;;;;;4938905;29;20027;-76
2021/09/11 00:20:29;;;;;;;1.92;0.93;;;20.10;68.90;;;;;;4956847;29;20020;-76
2021/09/11 00:22:57;;;;;;;3.53;0.90;;;20.10;69.20;;;;;;4956728;29;20023;-76
2021/09/11 00:25:22;;;;;;;2.53;0.80;;;20.10;69.10;;;;;;4955929;29;20031;-76
2021/09/11 00:27:48;;;;;;;1.92;0.88;;;20.10;69.10;;;;;;4956268;29;20111;-76
2021/09/11 00:30:14;;;;;;;2.17;0.90;;;20.10;69.00;;;;;;4939007;29;20038;-75
2021/09/11 00:32:43;;;;;;;3.05;0.90;;;20.10;68.90;;;;;;4955974;29;20043;-75
2021/09/11 00:35:18;;;;;;;2.38;0.63;;;20.10;69.20;;;;;;4956319;29;20059;-77
2021/09/11 00:37:45;;;;;;;2.88;0.73;;;20.10;68.70;;;;;;4956550;29;20094;-74
2021/09/11 00:40:14;;;;;;;4.03;0.80;;;20.10;69.80;;;;;;4956134;29;20091;-75
2021/09/11 00:42:46;;;;;;;2.05;0.70;;;20.10;69.00;;;;;;4956269;29;20378;-75
2021/09/11 00:45:16;;;;;;;4.30;1.42;;;20.10;69.10;;;;;;4955877;29;20027;-75
2021/09/11 00:47:42;;;;;;;1.52;1.00;;;20.10;68.70;;;;;;4955993;29;20053;-75
2021/09/11 00:50:09;;;;;;;2.40;1.00;;;20.10;68.90;;;;;;4956200;29;20032;-75
2021/09/11 00:52:34;;;;;;;3.25;1.10;;;20.10;68.70;;;;;;4956402;29;20027;-74
2021/09/11 00:55:00;;;;;;;1.08;0.90;;;20.10;68.80;;;;;;4955714;29;20091;-74
2021/09/11 00:57:27;;;;;;;2.85;1.30;;;20.10;68.80;;;;;;4955698;29;20031;-75
2021/09/11 00:59:53;;;;;;;1.67;0.90;;;20.00;68.70;;;;;;4955620;29;20027;-74
2021/09/11 01:02:18;;;;;;;1.65;1.10;;;20.00;68.60;;;;;;4940632;29;20023;-74
2021/09/11 01:04:44;;;;;;;1.77;1.00;;;19.90;68.70;;;;;;4950286;29;20035;-73
2021/09/11 01:07:10;;;;;;;2.22;1.00;;;19.80;68.70;;;;;;4937578;29;20071;-75
2021/09/11 01:09:36;;;;;;;2.50;1.20;;;19.80;68.70;;;;;;4955312;29;20027;-74
2021/09/11 01:12:02;;;;;;;2.58;1.20;;;19.80;68.40;;;;;;4955617;29;20023;-74
2021/09/11 01:14:27;;;;;;;1.55;1.02;;;19.60;68.40;;;;;;4955390;29;20106;-74
2021/09/11 01:16:53;;;;;;;1.75;1.10;;;19.50;68.50;;;;;;4938531;29;20027;-73
2021/09/11 01:19:19;;;;;;;2.05;1.20;;;19.50;68.90;;;;;;4938688;28;20043;-74
2021/09/11 01:21:44;;;;;;;2.88;1.20;;;19.50;68.90;;;;;;4955396;29;20031;-75
2021/09/11 01:24:10;;;;;;;1.77;1.10;;;19.50;68.90;;;;;;4955150;29;20508;-75
2021/09/11 01:26:35;;;;;;;1.42;1.05;;;19.40;69.00;;;;;;4955464;29;20162;-75
2021/09/11 01:29:01;;;;;;;2.28;1.10;;;19.40;69.20;;;;;;4955179;29;20066;-74
2021/09/11 01:31:34;;;;;;;1.65;1.10;;;19.40;69.10;;;;;;4955410;29;20122;-75
2021/09/11 01:34:00;;;;;;;1.38;1.02;;;19.30;68.80;;;;;;4955207;29;20051;-75
2021/09/11 01:36:27;;;;;;;1.58;1.13;;;19.20;68.80;;;;;;4955214;29;20114;-76
2021/09/11 01:38:53;;;;;;;1.73;0.80;;;19.20;69.20;;;;;;4955011;29;20448;-75
2021/09/11 01:41:18;;;;;;;1.85;1.10;;;19.20;69.30;;;;;;4955335;29;20078;-75
2021/09/11 01:43:44;;;;;;;4.32;1.15;;;19.20;69.20;;;;;;4938115;29;20031;-75
2021/09/11 01:46:10;;;;;;;1.77;0.85;;;19.10;69.10;;;;;;4937636;29;20063;-75
2021/09/11 01:48:35;;;;;;;1.92;1.30;;;19.10;69.20;;;;;;4954825;29;20034;-75
2021/09/11 01:51:01;;;;;;;2.55;1.25;;;19.00;69.20;;;;;;4954900;29;20079;-75
2021/09/11 01:53:26;;;;;;;2.33;1.00;;;19.00;69.30;;;;;;4937807;29;20027;-75
2021/09/11 01:55:52;;;;;;;2.47;1.40;;;18.90;69.20;;;;;;4955025;29;20547;-74
2021/09/11 01:58:18;;;;;;;2.67;1.60;;;18.90;69.50;;;;;;4953997;29;20061;-75
2021/09/11 02:00:44;;;;;;;2.20;1.55;;;18.80;69.40;;;;;;4952440;29;20031;-75
2021/09/11 02:03:10;;;;;;;3.63;1.40;;;18.80;69.70;;;;;;4932379;29;20023;-74
2021/09/11 02:05:36;;;;;;;4.35;1.33;;;18.80;69.60;;;;;;4947686;29;20050;-75
2021/09/11 02:08:01;;;;;;;2.97;1.35;;;18.80;69.30;;;;;;4954797;29;20028;-75
2021/09/11 02:10:27;;;;;;;2.45;1.40;;;18.80;69.60;;;;;;4954972;29;20073;-74
2021/09/11 02:12:53;;;;;;;1.88;1.33;;;18.80;70.10;;;;;;4954165;29;20126;-74
2021/09/11 02:15:19;;;;;;;1.88;1.23;;;18.80;69.10;;;;;;4954621;29;20031;-73
2021/09/11 02:17:45;;;;;;;1.65;1.10;;;18.80;69.40;;;;;;4954674;29;20031;-74
2021/09/11 02:20:11;;;;;;;2.67;1.13;;;18.80;69.50;;;;;;4937129;29;20047;-73
2021/09/11 02:22:38;;;;;;;3.08;0.98;;;18.70;69.10;;;;;;4954909;29;20023;-77
2021/09/11 02:25:05;;;;;;;3.22;1.20;;;18.70;69.20;;;;;;4954160;29;20110;-74
2021/09/11 02:27:30;;;;;;;3.15;1.00;;;18.70;69.30;;;;;;4953761;29;20039;-75
2021/09/11 02:29:56;;;;;;;1.55;0.90;;;18.70;69.30;;;;;;4936852;29;20366;-74
2021/09/11 02:32:22;;;;;;;2.63;1.02;;;18.60;69.30;;;;;;4953749;28;20043;-74
2021/09/11 02:34:47;;;;;;;2.22;1.00;;;18.60;69.50;;;;;;4954750;29;20555;-74
2021/09/11 02:37:13;;;;;;;2.20;1.23;;;18.60;69.30;;;;;;4954205;29;20058;-74
2021/09/11 02:39:39;;;;;;;1.83;1.15;;;18.60;69.40;;;;;;4953881;29;20023;-73
2021/09/11 02:42:06;;;;;;;3.80;1.30;;;18.50;69.60;;;;;;4953725;29;20059;-73
2021/09/11 02:44:32;;;;;;;2.20;1.10;;;18.50;69.60;;;;;;4954095;29;20090;-74
2021/09/11 02:46:57;;;;;;;4.13;1.05;;;18.40;69.40;;;;;;4953872;29;20460;-74
2021/09/11 02:49:23;;;;;;;2.75;1.10;;;18.40;69.60;;;;;;4954412;29;20024;-74
2021/09/11 02:51:49;;;;;;;3.13;1.08;;;18.40;69.80;;;;;;4953767;29;20999;-74
2021/09/11 02:54:14;;;;;;;4.40;1.10;;;18.40;69.80;;;;;;4953802;29;20435;-74
2021/09/11 02:56:40;;;;;;;1.42;1.10;;;18.40;69.70;;;;;;4953485;29;20034;-74
2021/09/11 02:59:06;;;;;;;2.03;1.00;;;18.30;69.70;;;;;;4936552;29;20031;-74
2021/09/11 03:01:31;;;;;;;1.67;1.17;;;18.30;69.80;;;;;;4954316;29;20031;-74
2021/09/11 03:03:57;;;;;;;2.78;1.10;;;18.20;69.70;;;;;;4953661;29;20043;-74
2021/09/11 03:06:22;;;;;;;1.70;1.08;;;18.20;70.00;;;;;;4946694;29;20039;-74
2021/09/11 03:08:48;;;;;;;4.32;1.15;;;18.10;70.00;;;;;;4953569;29;20509;-74
2021/09/11 03:11:14;;;;;;;2.88;1.23;;;18.00;70.40;;;;;;4953404;29;20026;-75
2021/09/11 03:13:42;;;;;;;2.72;1.20;;;18.10;70.50;;;;;;4954191;29;20028;-74
2021/09/11 03:16:08;;;;;;;3.20;1.00;;;18.00;70.50;;;;;;4953625;29;20047;-74
2021/09/11 03:18:33;;;;;;;3.10;1.30;;;18.00;70.50;;;;;;4953664;29;20037;-76
2021/09/11 03:20:59;;;;;;;1.60;1.00;;;18.00;70.60;;;;;;4953698;29;20031;-74
2021/09/11 03:23:25;;;;;;;2.42;1.30;;;17.90;70.40;;;;;;4936423;29;20500;-75
2021/09/11 03:25:50;;;;;;;4.10;1.50;;;17.90;70.80;;;;;;4953607;29;20462;-74
2021/09/11 03:28:16;;;;;;;1.52;1.20;;;18.00;71.00;;;;;;4953656;29;20038;-76
2021/09/11 03:30:41;;;;;;;2.63;1.23;;;17.90;70.70;;;;;;4953294;29;20523;-74
2021/09/11 03:33:07;;;;;;;2.83;1.30;;;18.00;71.00;;;;;;4952819;29;20055;-74
2021/09/11 03:35:33;;;;;;;3.33;1.20;;;18.00;70.60;;;;;;4935582;29;20043;-74
2021/09/11 03:37:59;;;;;;;2.65;1.10;;;17.90;70.70;;;;;;4952994;29;20023;-74
2021/09/11 03:40:24;;;;;;;2.42;1.25;;;17.90;70.90;;;;;;4952687;29;20039;-74
2021/09/11 03:42:50;;;;;;;2.50;1.27;;;17.90;70.80;;;;;;4952502;28;20042;-75
2021/09/11 03:45:16;;;;;;;2.30;1.25;;;18.00;71.00;;;;;;4955416;29;20460;-75
2021/09/11 03:47:41;;;;;;;2.88;1.17;;;17.90;70.90;;;;;;4956111;29;20042;-74
2021/09/11 03:50:08;;;;;;;2.90;1.20;;;17.90;71.20;;;;;;4956231;29;20078;-75
2021/09/11 03:52:34;;;;;;;2.60;1.25;;;18.00;71.30;;;;;;4939456;29;20030;-74
2021/09/11 03:55:00;;;;;;;2.55;1.30;;;18.00;71.10;;;;;;4955462;29;20488;-75
2021/09/11 03:57:26;;;;;;;1.60;1.10;;;18.00;71.10;;;;;;4938535;29;20023;-75
2021/09/11 03:59:52;;;;;;;2.90;1.50;;;18.00;70.90;;;;;;4938735;29;20135;-75
2021/09/11 04:02:18;;;;;;;3.10;1.10;;;18.00;70.90;;;;;;4955181;29;20074;-74
2021/09/11 04:04:44;;;;;;;3.28;1.55;;;18.00;71.10;;;;;;4956175;29;20023;-74
2021/09/11 04:07:09;;;;;;;2.75;1.30;;;18.00;71.20;;;;;;4954846;29;20547;-75
2021/09/11 04:09:35;;;;;;;1.85;1.40;;;18.00;70.90;;;;;;4954713;29;20036;-74
2021/09/11 04:12:01;;;;;;;1.63;1.25;;;18.00;70.90;;;;;;4938230;29;20030;-74
2021/09/11 04:14:26;;;;;;;1.85;1.20;;;18.00;71.10;;;;;;4937967;29;20038;-75
2021/09/11 04:16:52;;;;;;;1.90;1.20;;;18.00;70.90;;;;;;4955168;29;20034;-75
2021/09/11 04:19:18;;;;;;;1.85;1.30;;;17.90;71.00;;;;;;4955796;29;20403;-75
2021/09/11 04:21:44;;;;;;;2.75;1.48;;;17.90;71.00;;;;;;4955340;29;20027;-74
2021/09/11 04:24:09;;;;;;;2.10;1.40;;;17.90;71.10;;;;;;4937916;29;20086;-75
2021/09/11 04:26:38;;;;;;;2.63;1.45;;;17.90;71.10;;;;;;4955450;29;20031;-75
2021/09/11 04:29:04;;;;;;;3.17;1.48;;;18.00;71.30;;;;;;4938190;29;20062;-75
2021/09/11 04:31:30;;;;;;;3.47;1.63;;;17.90;71.10;;;;;;4955898;29;20062;-74
2021/09/11 04:33:56;;;;;;;2.00;1.55;;;17.90;71.10;;;;;;4914032;29;1230636;-74
2021/09/11 04:36:21;;;;;;;3.72;1.63;;;17.90;71.20;;;;;;4956420;29;20063;-75
2021/09/11 04:38:47;;;;;;;2.83;1.70;;;18.00;71.30;;;;;;4956134;29;20075;-75
2021/09/11 04:41:13;;;;;;;2.08;1.45;;;17.90;71.10;;;;;;4939255;29;20452;-75
2021/09/11 04:43:38;;;;;;;2.90;1.70;;;18.00;71.40;;;;;;4956911;29;20055;-75
2021/09/11 04:46:04;;;;;;;2.72;2.15;;;18.00;71.10;;;;;;4956157;29;20396;-75
2021/09/11 04:48:30;;;;;;;3.08;1.63;;;18.00;71.10;;;;;;4955541;29;20055;-75
2021/09/11 04:50:56;;;;;;;1.98;1.60;;;18.00;71.40;;;;;;4949990;29;20041;-75
2021/09/11 04:53:22;;;;;;;3.10;1.73;;;18.10;71.50;;;;;;4955892;29;20127;-74
2021/09/11 04:55:47;;;;;;;3.25;1.42;;;18.00;71.10;;;;;;4956490;28;20027;-75
2021/09/11 04:58:13;;;;;;;3.75;2.00;;;18.10;71.50;;;;;;4955987;29;20118;-74
2021/09/11 05:00:39;;;;;;;3.13;1.95;;;18.10;71.20;;;;;;4955995;29;20034;-75
2021/09/11 05:03:04;;;;;;;2.38;1.88;;;18.10;71.10;;;;;;4955774;29;20039;-74
2021/09/11 05:05:30;;;;;;;4.18;1.80;;;18.10;71.10;;;;;;4955862;29;20034;-75
2021/09/11 05:07:57;;;;;;;1.90;1.60;;;18.10;71.00;;;;;;4955509;29;20113;-75
2021/09/11 05:10:23;;;;;;;2.58;1.85;;;18.10;71.00;;;;;;4956350;29;20500;-74
2021/09/11 05:12:49;;;;;;;3.08;1.50;;;18.10;71.10;;;;;;4955728;29;20042;-74
2021/09/11 05:15:15;;;;;;;2.53;1.67;;;18.00;71.00;;;;;;4955777;29;20031;-74
2021/09/11 05:17:41;;;;;;;4.55;1.52;;;18.00;71.00;;;;;;4955610;29;20031;-74
2021/09/11 05:20:06;;;;;;;2.38;1.77;;;18.00;71.20;;;;;;4955746;29;20023;-74
2021/09/11 05:22:32;;;;;;;4.22;1.95;;;18.00;71.20;;;;;;4938608;29;20041;-74
2021/09/11 05:24:58;;;;;;;2.58;1.63;;;18.00;71.30;;;;;;4955332;29;20126;-74
2021/09/11 05:27:23;;;;;;;2.65;1.98;;;18.00;72.20;;;;;;4955317;29;20058;-74
2021/09/11 05:29:49;;;;;;;3.33;1.70;;;18.00;70.90;;;;;;4955735;29;20122;-75
2021/09/11 05:32:15;;;;;;;2.30;1.50;;;17.90;71.00;;;;;;4955243;29;20059;-75
2021/09/11 05:34:41;;;;;;;3.90;1.90;;;17.90;71.50;;;;;;4955890;29;20059;-74
2021/09/11 05:37:06;;;;;;;3.58;1.80;;;17.90;71.60;;;;;;4955011;29;20027;-74
2021/09/11 05:39:32;;;;;;;2.88;1.67;;;17.90;71.60;;;;;;4938163;29;20476;-74
2021/09/11 05:41:57;;;;;;;3.97;1.70;;;17.90;71.60;;;;;;4955332;29;20563;-74
2021/09/11 05:44:23;;;;;;;2.88;1.73;;;17.90;71.70;;;;;;4955296;29;20036;-74
2021/09/11 05:46:49;;;;;;;2.70;1.60;;;17.80;71.60;;;;;;4955431;29;20077;-74
2021/09/11 05:49:15;;;;;;;3.75;1.70;;;17.80;71.70;;;;;;4955158;29;20059;-74
2021/09/11 05:51:40;;;;;;;2.03;1.40;;;17.80;71.90;;;;;;4954897;29;20500;-74
2021/09/11 05:54:06;;;;;;;2.45;1.63;;;17.80;71.90;;;;;;4955127;29;20031;-74
2021/09/11 05:56:31;;;;;;;3.35;1.45;;;17.70;71.80;;;;;;4955022;29;20027;-74
2021/09/11 05:58:57;;;;;;;2.58;1.50;;;17.70;71.90;;;;;;4955123;29;20055;-74
2021/09/11 06:01:23;;;;;;;2.60;1.33;;;17.70;72.00;;;;;;4955384;29;20118;-74
2021/09/11 06:03:48;;;;;;;3.58;1.70;;;17.70;72.30;;;;;;4954720;29;20488;-74
2021/09/11 06:06:14;;;;;;;2.33;1.55;;;17.80;72.40;;;;;;4953776;28;20039;-75
2021/09/11 06:08:40;;;;;;;2.63;1.60;;;17.80;72.20;;;;;;4954882;29;20570;-75
2021/09/11 06:11:05;;;;;;;3.67;1.65;;;17.80;72.10;;;;;;4937638;29;20059;-75
2021/09/11 06:13:31;;;;;;;2.47;1.50;;;17.90;72.10;;;;;;4938119;29;20038;-75
2021/09/11 06:15:57;;;;;;;3.80;1.70;;;18.00;73.30;;;;;;4954579;29;20050;-75
2021/09/11 06:18:22;;;;;;;2.45;1.60;;;18.10;71.80;;;;;;4954722;29;20515;-74
2021/09/11 06:20:48;;;;;;;3.70;1.40;;;18.10;72.00;;;;;;4954433;29;20467;-75
2021/09/11 06:23:13;;;;;;;4.40;1.48;;;18.30;71.90;;;;;;4937473;29;20424;-75
2021/09/11 06:25:39;;;;;;;2.80;1.30;;;18.20;71.40;;;;;;4955177;29;20031;-76
2021/09/11 06:28:05;;;;;;;2.95;1.40;;;18.30;71.60;;;;;;4938114;29;20035;-75
2021/09/11 06:30:30;;;;;;;3.90;1.50;;;18.40;71.70;;;;;;4954824;29;20511;-74
2021/09/11 06:32:56;;;;;;;1.90;1.15;;;18.50;71.00;;;;;;4954695;28;20405;-76
2021/09/11 06:35:21;;;;;;;3.65;1.38;;;18.40;70.70;;;;;;4954519;29;20035;-75
2021/09/11 06:37:47;;;;;;;3.42;1.50;;;18.30;70.60;;;;;;4938211;29;20023;-74
2021/09/11 06:40:13;;;;;;;2.67;1.30;;;18.20;71.00;;;;;;4954523;29;20105;-76
2021/09/11 06:42:39;;;;;;;3.28;1.30;;;18.20;71.30;;;;;;4952090;29;20488;-74
2021/09/11 06:45:05;;;;;;;2.60;1.48;;;18.10;71.20;;;;;;4954279;29;20500;-73
2021/09/11 06:47:31;;;;;;;2.35;1.27;;;18.10;71.20;;;;;;4953281;29;20031;-75
2021/09/11 06:49:56;;;;;;;5.25;1.40;;;18.20;72.20;;;;;;4954588;29;20532;-74
2021/09/11 06:52:22;;;;;;;2.25;1.38;;;18.50;72.20;;;;;;4938348;29;20078;-76
2021/09/11 06:54:48;;;;;;;1.98;1.20;;;18.80;71.60;;;;;;4954462;29;20380;-75
2021/09/11 06:57:13;;;;;;;1.70;1.30;;;19.00;71.30;;;;;;4936158;29;20050;-76
2021/09/11 06:59:39;;;;;;;2.03;1.40;;;19.20;70.40;;;;;;4936753;29;20042;-76
2021/09/11 07:02:05;;;;;;;3.63;1.48;;;19.40;69.50;;;;;;4953957;29;20031;-75
2021/09/11 07:04:30;;;;;;;2.72;1.50;;;19.50;69.50;;;;;;4953892;29;20103;-75
2021/09/11 07:06:56;;;;;;;1.95;1.20;;;19.70;69.40;;;;;;4936277;29;20501;-75
2021/09/11 07:09:22;;;;;;;2.95;1.33;;;19.90;68.50;;;;;;4936585;29;20023;-76
2021/09/11 07:11:47;;;;;;;2.70;1.30;;;20.00;68.10;;;;;;4954019;29;20566;-75
2021/09/11 07:14:15;;;;;;;2.38;1.17;;;20.10;67.90;;;;;;4953932;29;20024;-75
2021/09/11 07:16:41;;;;;;;2.92;1.20;;;20.30;67.90;;;;;;4936701;29;20122;-75
2021/09/11 07:19:07;;;;;;;3.83;1.50;;;20.50;67.00;;;;;;4951594;28;20091;-74
2021/09/11 07:21:33;;;;;;;2.35;1.42;;;20.60;66.80;;;;;;4948835;29;20635;-72
2021/09/11 07:23:58;;;;;;;3.70;1.50;;;20.60;66.20;;;;;;4953548;29;20027;-72
2021/09/11 07:26:24;;;;;;;2.40;1.40;;;20.70;66.20;;;;;;4953373;29;20081;-73
2021/09/11 07:28:50;;;;;;;1.95;1.08;;;20.80;66.30;;;;;;4953920;29;20058;-74
2021/09/11 07:31:16;;;;;;;2.78;1.30;;;21.00;66.40;;;;;;4953583;29;20163;-73
2021/09/11 07:33:43;;;;;;;3.30;1.20;;;21.20;65.80;;;;;;4952855;28;20101;-71
2021/09/11 07:36:09;;;;;;;4.10;1.15;;;21.30;65.10;;;;;;4952735;29;20033;-73
2021/09/11 07:38:35;;;;;;;1.50;0.93;;;21.40;65.40;;;;;;4953579;29;20055;-74
2021/09/11 07:41:02;;;;;;;1.85;1.10;;;21.60;65.00;;;;;;4953335;29;20404;-67
2021/09/11 07:43:28;;;;;;;2.08;1.10;;;21.70;64.10;;;;;;4953357;29;20090;-68
2021/09/11 07:45:53;;;;;;;3.97;1.27;;;21.90;64.40;;;;;;4950594;29;20448;-59
2021/09/11 07:48:19;;;;;;;2.65;1.20;;;22.10;62.90;;;;;;4952637;29;20561;-59
2021/09/11 07:50:45;;;;;;;1.63;1.00;;;22.10;62.00;;;;;;4953130;29;20027;-60
2021/09/11 07:53:10;;;;;;;3.88;1.10;;;22.20;61.60;;;;;;4953247;29;20036;-58
2021/09/11 07:55:36;;;;;;;2.15;1.08;;;22.20;61.50;;;;;;4953695;29;20085;-59
2021/09/11 07:58:02;;;;;;;2.78;1.17;;;22.30;61.70;;;;;;4952563;29;20083;-59
2021/09/11 08:00:28;;;;;;;1.67;1.05;;;22.50;61.10;;;;;;4952876;29;20392;-59
2021/09/11 08:02:54;;;;;;;2.50;1.27;;;22.50;59.70;;;;;;4953117;29;20027;-59
2021/09/11 08:05:20;;;;;;;2.83;1.30;;;22.50;59.70;;;;;;4953020;29;20035;-59
2021/09/11 08:07:46;;;;;;;2.38;1.13;;;22.60;60.80;;;;;;4953162;29;20039;-59
2021/09/11 08:10:12;;;;;;;2.08;1.13;;;22.70;61.30;;;;;;4952772;29;20023;-60
2021/09/11 08:12:38;;;;;;;2.05;1.17;;;22.80;60.20;;;;;;4953079;29;20059;-60
2021/09/11 08:15:04;;;;;;;3.25;1.17;;;23.10;60.10;;;;;;4952198;29;20050;-60
2021/09/11 08:17:30;;;;;;;3.70;0.82;;;23.10;58.90;;;;;;4946573;29;20062;-60
2021/09/11 08:19:56;;;;;;;1.85;0.75;;;23.20;58.00;;;;;;4946275;29;20050;-59
2021/09/11 08:22:22;;;;;;;3.20;0.90;;;23.40;58.60;;;;;;4947827;29;20607;-60
2021/09/11 08:24:47;;;;;;;3.75;1.33;;;23.50;58.00;;;;;;4949336;29;20170;-61
2021/09/11 08:27:13;;;;;;;2.03;0.85;;;23.70;58.20;;;;;;4952431;29;20046;-60
2021/09/11 08:29:40;;;;;;;2.45;0.80;;;23.90;56.80;;;;;;4952590;28;20074;-59
2021/09/11 08:32:06;;;;;;;2.55;1.10;;;24.10;55.90;;;;;;4949547;29;20055;-61
2021/09/11 08:34:32;;;;;;;2.33;0.77;;;24.20;54.60;;;;;;4948479;29;20026;-60
2021/09/11 08:36:57;;;;;;;2.10;0.90;;;24.30;55.10;;;;;;4946861;29;20499;-60
2021/09/11 08:39:25;;;;;;;2.55;1.00;;;24.60;55.30;;;;;;4949509;29;20097;-59
2021/09/11 08:41:52;;;;;;;1.40;0.73;;;24.80;55.20;;;;;;4956225;29;20181;-60
2021/09/11 08:44:17;;;;;;;2.40;0.70;;;24.80;53.60;;;;;;4942524;29;20046;-60
2021/09/11 08:46:43;;;;;;;2.03;0.70;;;24.90;52.60;;;;;;4953416;29;20400;-59
2021/09/11 08:49:10;;;;;;;1.48;0.75;;;24.80;52.80;;;;;;4946193;29;20028;-76
2021/09/11 08:51:36;;;;;;;1.48;0.65;;;24.70;52.20;;;;;;4949018;29;20503;-73
2021/09/11 08:54:02;;;;;;;2.13;0.90;;;24.60;52.80;;;;;;4949112;29;20105;-72
2021/09/11 08:56:28;;;;;;;2.03;0.70;;;24.80;52.60;;;;;;4946858;29;20035;-73
2021/09/11 08:59:10;;;;;;;1.73;0.70;;;24.90;52.90;;;;;;4949536;29;20082;-74
2021/09/11 09:01:37;;;;;;;2.90;0.82;;;25.10;54.10;;;;;;4945393;29;20524;-76
2021/09/11 09:04:03;;;;;;;3.85;0.80;;;25.00;50.50;;;;;;4948405;29;20067;-76
2021/09/11 09:06:31;;;;;;;2.25;0.70;;;24.90;50.90;;;;;;4947891;29;20028;-80
2021/09/11 09:09:11;;;;;;;1.70;0.70;;;24.90;49.20;;;;;;4949699;29;20023;-74
2021/09/11 09:11:42;;;;;;;2.00;0.80;;;24.90;51.40;;;;;;4948225;29;20090;-75
2021/09/11 09:14:13;;;;;;;1.35;0.60;;;25.10;51.80;;;;;;4946772;29;20027;-75
2021/09/11 09:16:42;;;;;;;2.15;0.70;;;25.30;50.20;;;;;;4947699;29;20082;-74
2021/09/11 09:19:34;;;;;;;4.22;0.95;;;25.50;50.20;;;;;;4946289;29;20034;-75
2021/09/11 09:22:01;;;;;;;5.93;0.73;;;25.50;50.80;;;;;;4945138;29;20047;-74
2021/09/11 09:24:30;;;;;;;2.83;0.73;;;25.70;48.50;;;;;;4946968;29;20369;-74
2021/09/11 09:27:01;;;;;;;3.20;1.00;;;25.90;48.70;;;;;;4946915;29;20043;-75
2021/09/11 09:29:27;;;;;;;1.40;0.60;;;26.00;49.70;;;;;;4946630;29;20117;-75
2021/09/11 09:31:56;;;;;;;1.70;0.70;;;26.00;47.30;;;;;;4946571;29;20036;-75
2021/09/11 09:34:30;;;;;;;0.82;0.47;;;26.20;48.50;;;;;;4947535;29;20118;-78
2021/09/11 09:36:57;;;;;;;2.53;0.70;;;26.40;47.90;;;;;;4937747;29;20083;-76
2021/09/11 09:39:23;;;;;;;1.48;0.60;;;26.40;47.10;;;;;;4946908;29;20019;-76
2021/09/11 09:41:51;;;;;;;1.00;0.60;;;26.50;46.70;;;;;;4945489;28;20046;-76
2021/09/11 09:44:19;;;;;;;2.55;0.60;;;26.60;45.80;;;;;;4945986;29;20031;-76
2021/09/11 09:46:49;;;;;;;2.20;0.75;;;27.00;46.90;;;;;;4944808;29;20081;-76
2021/09/11 09:49:20;;;;;;;2.65;0.60;;;27.40;46.20;;;;;;4946714;29;20055;-76
2021/09/11 09:51:46;;;;;;;2.88;0.70;;;27.60;45.30;;;;;;4944773;29;20068;-77
2021/09/11 09:54:14;;;;;;;5.38;0.82;;;27.50;44.60;;;;;;4928693;29;20792;-78
2021/09/11 09:56:40;;;;;;;1.27;0.73;;;27.70;43.10;;;;;;4947871;29;20075;-79
2021/09/11 09:59:07;;;;;;;1.45;0.80;;;28.10;43.40;;;;;;4942834;29;20019;-80
2021/09/11 10:01:33;;;;;;;1.58;0.70;;;28.30;42.60;;;;;;4948347;29;20035;-81
2021/09/11 10:04:15;;;;;;;1.83;0.77;;;28.70;42.40;;;;;;4947109;29;20028;-81
2021/09/11 10:06:43;;;;;;;2.47;1.20;;;28.70;42.80;;;;;;4942434;29;20083;-79
2021/09/11 10:09:10;;;;;;;2.42;1.00;;;29.10;41.20;;;;;;4942416;29;20105;-79
2021/09/11 10:11:42;;;;;;;2.35;0.88;;;29.20;41.50;;;;;;4942940;29;20024;-79
2021/09/11 10:14:13;;;;;;;2.70;1.15;;;29.40;41.10;;;;;;4938675;29;20027;-76
2021/09/11 10:16:44;;;;;;;1.98;1.02;;;29.80;41.30;;;;;;4946268;29;20031;-77
2021/09/11 10:19:19;;;;;;;2.17;0.75;;;30.40;41.80;;;;;;4947469;29;20031;-77
2021/09/11 10:21:47;;;;;;;1.33;0.60;;;30.60;39.40;;;;;;4953594;29;20448;-78
2021/09/11 10:24:17;;;;;;;1.00;0.60;;;30.30;36.70;;;;;;4946219;29;20059;-77
2021/09/11 10:26:59;;;;;;;2.05;0.65;;;29.60;36.70;;;;;;4954362;29;20066;-80
2021/09/11 10:29:33;;;;;;;2.57;0.57;;;28.90;40.00;;;;;;4940096;29;20042;-79
2021/09/11 10:32:08;;;;;;;1.42;0.63;;;28.40;40.70;;;;;;4954521;29;20316;-80
2021/09/11 10:35:16;;;;;;;1.55;0.70;;;27.70;40.40;;;;;;4953491;29;20039;-80
2021/09/11 10:37:53;;;;;;;2.05;0.70;;;27.20;41.70;;;;;;4954313;29;20038;-73
2021/09/11 10:40:28;;;;;;;1.58;0.70;;;26.80;42.10;;;;;;4953965;29;20031;-78
2021/09/11 10:43:17;;;;;;;1.95;0.80;;;26.40;42.80;;;;;;4954104;29;20471;-78
2021/09/11 10:46:02;;;;;;;2.33;0.70;;;26.20;44.90;;;;;;4953645;29;20027;-79
2021/09/11 10:48:39;;;;;;;2.55;1.00;;;26.60;43.10;;;;;;4947823;29;20038;-80
2021/09/11 10:51:18;;;;;;;2.03;0.90;;;27.40;44.50;;;;;;4944879;29;20118;-80
2021/09/11 10:53:59;;;;;;;1.25;0.80;;;27.50;42.10;;;;;;4936118;29;20062;-80
2021/09/11 10:56:34;;;;;;;1.40;0.75;;;27.40;42.60;;;;;;4944164;29;20122;-79
2021/09/11 10:59:15;;;;;;;3.13;0.80;;;27.40;40.80;;;;;;4943273;29;20023;-77
2021/09/11 11:01:56;;;;;;;1.52;0.73;;;27.20;42.20;;;;;;4947592;29;20042;-81
2021/09/11 11:04:38;;;;;;;1.15;0.70;;;27.30;42.20;;;;;;4943335;29;20159;-78
2021/09/11 11:07:10;;;;;;;1.25;0.65;;;27.90;42.70;;;;;;4948587;29;20057;-78
2021/09/11 11:09:39;;;;;;;0.82;0.52;;;29.20;42.70;;;;;;4927604;29;20066;-80
2021/09/11 11:12:06;;;;;;;1.23;0.70;;;30.30;40.30;;;;;;4944444;29;20027;-79
2021/09/11 11:14:34;;;;;;;1.10;0.60;;;30.40;37.40;;;;;;4953629;29;20496;-77
2021/09/11 11:17:00;;;;;;;2.55;1.00;;;29.60;37.90;;;;;;4953497;29;20035;-77
2021/09/11 11:19:26;;;;;;;2.10;1.10;;;28.70;37.10;;;;;;4953218;29;20032;-82
2021/09/11 11:22:02;;;;;;;1.23;0.80;;;28.00;38.60;;;;;;4931891;29;20093;-83
2021/09/11 11:24:30;;;;;;;1.70;0.77;;;27.40;39.30;;;;;;4935192;29;20106;-84
2021/09/11 11:26:59;;;;;;;2.50;0.80;;;27.00;39.90;;;;;;4953369;29;20043;-82
2021/09/11 11:29:26;;;;;;;3.30;1.00;;;26.80;41.10;;;;;;4953314;29;20027;-81
2021/09/11 11:31:51;;;;;;;1.58;0.73;;;27.10;42.20;;;;;;4953597;29;20031;-81
2021/09/11 11:34:17;;;;;;;1.40;0.60;;;28.50;42.40;;;;;;4954058;29;20034;-84
2021/09/11 11:36:56;;;;;;;1.52;0.65;;;29.80;40.30;;;;;;4953756;29;20027;-80
2021/09/11 11:39:28;;;;;;;2.42;0.70;;;30.90;38.40;;;;;;4952884;29;20051;-80
2021/09/11 11:42:08;;;;;;;1.83;0.52;;;31.20;34.80;;;;;;4952747;29;20167;-80
2021/09/11 11:44:57;;;;;;;1.48;0.57;;;30.70;34.20;;;;;;4954376;29;20034;-86
2021/09/11 11:47:58;;;;;;;1.15;0.55;;;29.90;35.50;;;;;;4937815;29;20047;-79
2021/09/11 11:50:30;;;;;;;1.25;0.70;;;29.70;36.40;;;;;;4938578;29;20031;-81
2021/09/11 11:52:57;;;;;;;;;;;29.20;36.30;;;;;;4953717;29;20054;-81
2021/09/11 11:55:24;;;;;;;1.45;0.50;;;30.10;41.20;;;;;;4953225;29;19997;-80
2021/09/11 11:57:50;;;;;;;0.80;0.50;;;30.90;35.30;;;;;;4953535;29;20058;-82
2021/09/11 12:00:17;;;;;;;1.60;0.68;;;31.60;35.80;;;;;;4953320;29;20424;-81
2021/09/11 12:02:49;;;;;;;1.85;0.68;;;31.60;33.10;;;;;;4942181;29;20031;-80
2021/09/11 12:05:26;;;;;;;1.58;0.50;;;31.00;34.40;;;;;;4941036;28;20027;-80
2021/09/11 12:07:53;;;;;;;0.82;0.70;;;30.60;34.50;;;;;;4953232;29;20377;-81
2021/09/11 12:10:19;;;;;;;1.35;0.60;;;31.40;35.50;;;;;;4944569;29;20075;-82
2021/09/11 12:12:50;;;;;;;1.15;0.60;;;32.20;33.90;;;;;;4952538;29;20538;-82
2021/09/11 12:15:22;;;;;;;1.27;0.70;;;33.00;33.90;;;;;;4956712;29;20474;-81
2021/09/11 12:17:56;;;;;;;0.95;0.60;;;33.60;31.70;;;;;;4939768;29;20558;-82
2021/09/11 12:20:23;;;;;;;1.45;0.50;;;34.10;31.70;;;;;;4941518;29;20388;-81
2021/09/11 12:23:06;;;;;;;0.63;0.50;;;34.50;29.80;;;;;;4956958;29;20066;-81
2021/09/11 12:25:57;;;;;;;1.02;0.50;;;34.60;30.60;;;;;;4955248;29;20036;-81
2021/09/11 12:28:36;;;;;;;1.15;0.65;;;34.80;30.10;;;;;;4955821;29;20494;-81
2021/09/11 12:31:23;;;;;;;0.77;0.60;;;35.00;29.30;;;;;;4956368;29;20039;-81
2021/09/11 12:33:52;;;;;;;1.17;0.63;;;35.20;29.70;;;;;;4956085;29;20609;-82
2021/09/11 12:36:23;;;;;;;0.90;0.40;;;35.10;27.20;;;;;;4956026;29;20027;-82
2021/09/11 12:38:50;;;;;;;1.63;0.50;;;34.20;27.60;;;;;;4956417;29;20385;-82
2021/09/11 12:41:17;;;;;;;0.60;0.40;;;33.70;28.40;;;;;;4956299;29;20019;-82
2021/09/11 12:43:43;;;;;;;2.30;0.50;;;33.50;28.90;;;;;;4956745;29;20562;-81
2021/09/11 12:46:09;;;;;;;0.57;0.45;;;33.30;29.00;;;;;;4956110;29;20032;-81
2021/09/11 12:48:34;;;;;;;0.70;0.40;;;33.40;29.60;;;;;;4956276;29;20039;-81
2021/09/11 12:51:00;;;;;;;1.05;0.30;;;33.10;28.80;;;;;;4955762;29;20055;-81